Hermes — SY6064 — position and weather

sailwx.info

Track history (hours):
 
Tides and Currents Weather Stations Pressure Air Temp Water Temp Dewpoint Dewpoint Depression Visibility Wind Speed Wind Dir Waves Ship Positions

Hermes

Last reported at 2016-Jun-22 04:28 UTC. Time now 2016-Jun-29 09:19 UTC.
Position N 38°15' E 021°44'.

Length 27 m; draft 4.8 m.

Type: Tug. MMSI: 240391000.

Date/timePositionNaut miles runAvg speedWind from/ knotsBaromVisibWave heightAir tempDewpointWater temp
2016-Jun-22 04:28N 38°15' E 021°44'7 1.2
2016-Jun-21 22:33N 38°15' E 021°35'10 9.7
2016-Jun-21 21:33N 38°16' E 021°22'10 9.5
2016-Jun-21 20:33N 38°16' E 021°10'13 3.7
2016-Jun-21 17:07N 38°28' E 021°06'3 1.8
2016-Jun-21 15:33N 38°26' E 021°04'9 9.2
2016-Jun-21 14:33N 38°17' E 021°05'9 9.3
2016-Jun-21 13:33N 38°16' E 021°17'21 1.5
2016-Jun-20 23:25N 38°15' E 021°44'0 0.0
2016-Jun-20 21:23N 38°15' E 021°44'0 0.0
2016-Jun-20 20:21N 38°15' E 021°44'0 0.0
2016-Jun-19 17:22N 38°15' E 021°44'0 0.0
2016-Jun-19 09:25N 38°15' E 021°44'0 0.0
2016-Jun-19 04:32N 38°15' E 021°44'0 0.0
2016-Jun-19 03:30N 38°15' E 021°44'0 0.0
2016-Jun-19 02:33N 38°15' E 021°44'0 0.0
2016-Jun-18 20:32N 38°15' E 021°44'0 0.0
2016-Jun-18 17:27N 38°15' E 021°44'0 0.0
2016-Jun-18 14:24N 38°15' E 021°44'0 0.0
2016-Jun-18 08:26N 38°15' E 021°44'0 0.0
2016-Jun-17 23:23N 38°15' E 021°44'1 1.5
2016-Jun-17 22:30N 38°15' E 021°42'1111.0
2016-Jun-17 21:31N 38°15' E 021°29'1010.9
2016-Jun-17 20:33N 38°16' E 021°15'9 9.3
2016-Jun-17 19:33N 38°19' E 021°04'9 4.2
2016-Jun-17 17:26N 38°28' E 021°06'3 3.0
2016-Jun-17 16:33N 38°26' E 021°04'10 9.9
2016-Jun-17 15:33N 38°16' E 021°06'1010.5
2016-Jun-17 14:33N 38°16' E 021°20'19 1.1
2016-Jun-16 21:29N 38°15' E 021°44'0 0.0
2016-Jun-16 17:24N 38°15' E 021°44'  
2016-Jun-14 11:20N 38°16' E 021°24'910.9
2016-Jun-14 10:33N 38°16' E 021°14'9 8.8
2016-Jun-14 09:33N 38°21' E 021°04'8 8.1
2016-Jun-14 08:33N 38°29' E 021°06'0 0.1
2016-Jun-14 07:34N 38°29' E 021°06'1 1.1
2016-Jun-14 06:33N 38°28' E 021°05'0 0.2
2016-Jun-14 04:33N 38°28' E 021°05'1 1.3
2016-Jun-14 03:33N 38°28' E 021°06'0 0.0
2016-Jun-14 02:33N 38°28' E 021°06'4 4.3
2016-Jun-14 01:33N 38°24' E 021°04'9 8.9
2016-Jun-14 00:33N 38°16' E 021°08'1110.0
2016-Jun-13 23:25N 38°15' E 021°22'8 9.4
2016-Jun-13 22:33N 38°15' E 021°33'9 0.4
2016-Jun-12 21:21N 38°15' E 021°44'0 0.0
2016-Jun-12 09:26N 38°15' E 021°44'  
Track history (hours):
 
Tides and Currents Weather Stations Pressure Air Temp Water Temp Dewpoint Dewpoint Depression Visibility Wind Speed Wind Dir Waves Ship Positions

Hermes

Last reported at 2016-Jun-22 04:28 UTC. Time now 2016-Jun-29 09:19 UTC.
Position N 38°15' E 021°44'.

Length 27 m; draft 4.8 m.

Type: Tug. MMSI: 240391000.

Date/timePositionNaut miles runAvg speedWind from/ knotsBaromVisibWave heightAir tempDewpointWater temp
2016-Jun-22 04:28N 38°15' E 021°44'7 1.2
2016-Jun-21 22:33N 38°15' E 021°35'10 9.7
2016-Jun-21 21:33N 38°16' E 021°22'10 9.5
2016-Jun-21 20:33N 38°16' E 021°10'13 3.7
2016-Jun-21 17:07N 38°28' E 021°06'3 1.8
2016-Jun-21 15:33N 38°26' E 021°04'9 9.2
2016-Jun-21 14:33N 38°17' E 021°05'9 9.3
2016-Jun-21 13:33N 38°16' E 021°17'21 1.5
2016-Jun-20 23:25N 38°15' E 021°44'0 0.0
2016-Jun-20 21:23N 38°15' E 021°44'0 0.0
2016-Jun-20 20:21N 38°15' E 021°44'0 0.0
2016-Jun-19 17:22N 38°15' E 021°44'0 0.0
2016-Jun-19 09:25N 38°15' E 021°44'0 0.0
2016-Jun-19 04:32N 38°15' E 021°44'0 0.0
2016-Jun-19 03:30N 38°15' E 021°44'0 0.0
2016-Jun-19 02:33N 38°15' E 021°44'0 0.0
2016-Jun-18 20:32N 38°15' E 021°44'0 0.0
2016-Jun-18 17:27N 38°15' E 021°44'0 0.0
2016-Jun-18 14:24N 38°15' E 021°44'0 0.0
2016-Jun-18 08:26N 38°15' E 021°44'0 0.0
2016-Jun-17 23:23N 38°15' E 021°44'1 1.5
2016-Jun-17 22:30N 38°15' E 021°42'1111.0
2016-Jun-17 21:31N 38°15' E 021°29'1010.9
2016-Jun-17 20:33N 38°16' E 021°15'9 9.3
2016-Jun-17 19:33N 38°19' E 021°04'9 4.2
2016-Jun-17 17:26N 38°28' E 021°06'3 3.0
2016-Jun-17 16:33N 38°26' E 021°04'10 9.9
2016-Jun-17 15:33N 38°16' E 021°06'1010.5
2016-Jun-17 14:33N 38°16' E 021°20'19 1.1
2016-Jun-16 21:29N 38°15' E 021°44'0 0.0
2016-Jun-16 17:24N 38°15' E 021°44'  
2016-Jun-14 11:20N 38°16' E 021°24'910.9
2016-Jun-14 10:33N 38°16' E 021°14'9 8.8
2016-Jun-14 09:33N 38°21' E 021°04'8 8.1
2016-Jun-14 08:33N 38°29' E 021°06'0 0.1
2016-Jun-14 07:34N 38°29' E 021°06'1 1.1
2016-Jun-14 06:33N 38°28' E 021°05'0 0.2
2016-Jun-14 04:33N 38°28' E 021°05'1 1.3
2016-Jun-14 03:33N 38°28' E 021°06'0 0.0
2016-Jun-14 02:33N 38°28' E 021°06'4 4.3
2016-Jun-14 01:33N 38°24' E 021°04'9 8.9
2016-Jun-14 00:33N 38°16' E 021°08'1110.0
2016-Jun-13 23:25N 38°15' E 021°22'8 9.4
2016-Jun-13 22:33N 38°15' E 021°33'9 0.4
2016-Jun-12 21:21N 38°15' E 021°44'0 0.0
2016-Jun-12 09:26N 38°15' E 021°44'  

Dump ship's entire track history